N17X EHTP-EHTP
Flight info
| Callsign | N17X |
|---|---|
| Flight time | 0h 45m |
| Altitude | 2500 |
| Route | DCT |
| Aircraft | AS50/L-DGV/C |
Departure
| Time | 2026-04-25 18:38 |
|---|---|
| Airport | Maasvlakte Heliport (EHTP) |
Arrival
| Time | 2026-04-25 19:23 |
|---|---|
| Airport | Maasvlakte Heliport (EHTP) |
| Time | Latitude | Longitude | Altitude | Speed | Heading |
|---|---|---|---|---|---|
| 2026-04-25 18:38 | 52.01219 | 3.90661 | 1013 ft | 125 kts | 290° |
| 2026-04-25 18:38 | 52.01461 | 3.89301 | 1012 ft | 126 kts | 290° |
| 2026-04-25 18:38 | 52.01699 | 3.87945 | 1010 ft | 124 kts | 290° |
| 2026-04-25 18:38 | 52.01932 | 3.86609 | 1017 ft | 123 kts | 288° |
| 2026-04-25 18:39 | 52.02126 | 3.85250 | 1014 ft | 124 kts | 286° |
| 2026-04-25 18:39 | 52.02296 | 3.83876 | 1014 ft | 124 kts | 285° |
| 2026-04-25 18:39 | 52.02470 | 3.82502 | 1016 ft | 124 kts | 286° |
| 2026-04-25 18:39 | 52.02715 | 3.81177 | 1014 ft | 122 kts | 295° |
| 2026-04-25 18:40 | 52.03093 | 3.79953 | 1015 ft | 121 kts | 304° |
| 2026-04-25 18:40 | 52.03554 | 3.78812 | 1019 ft | 121 kts | 307° |
| 2026-04-25 18:40 | 52.04025 | 3.77707 | 1013 ft | 120 kts | 308° |
| 2026-04-25 18:40 | 52.04507 | 3.76572 | 1015 ft | 121 kts | 308° |
| 2026-04-25 18:41 | 52.05057 | 3.75557 | 1029 ft | 120 kts | 319° |
| 2026-04-25 18:41 | 52.05706 | 3.74690 | 1015 ft | 123 kts | 324° |
| 2026-04-25 18:41 | 52.06397 | 3.73854 | 1015 ft | 124 kts | 325° |
| 2026-04-25 18:41 | 52.07094 | 3.73008 | 1015 ft | 125 kts | 324° |
| 2026-04-25 18:42 | 52.07786 | 3.72137 | 1018 ft | 126 kts | 323° |
| 2026-04-25 18:42 | 52.08018 | 3.71838 | 1018 ft | 126 kts | 323° |
| 2026-04-25 18:42 | 52.09154 | 3.70342 | 1019 ft | 126 kts | 322° |
| 2026-04-25 18:42 | 52.09832 | 3.69436 | 1019 ft | 126 kts | 322° |
| 2026-04-25 18:43 | 52.10512 | 3.68526 | 1021 ft | 126 kts | 322° |
| 2026-04-25 18:43 | 52.11189 | 3.67618 | 1021 ft | 126 kts | 322° |
| 2026-04-25 18:43 | 52.11868 | 3.66710 | 1020 ft | 126 kts | 322° |
| 2026-04-25 18:43 | 52.12550 | 3.65799 | 1020 ft | 127 kts | 322° |
| 2026-04-25 18:44 | 52.13231 | 3.64886 | 1025 ft | 127 kts | 322° |
| 2026-04-25 18:44 | 52.13913 | 3.63973 | 1020 ft | 127 kts | 322° |
| 2026-04-25 18:44 | 52.14616 | 3.63060 | 881 ft | 133 kts | 324° |
| 2026-04-25 18:44 | 52.15341 | 3.62126 | 706 ft | 133 kts | 323° |
| 2026-04-25 18:45 | 52.15372 | 3.62086 | 700 ft | 133 kts | 323° |
| 2026-04-25 18:45 | 52.15877 | 3.61409 | 568 ft | 134 kts | 323° |
| 2026-04-25 18:46 | 52.16556 | 3.60458 | 409 ft | 123 kts | 321° |
| 2026-04-25 18:46 | 52.17089 | 3.59700 | 383 ft | 80 kts | 339° |
| 2026-04-25 18:46 | 52.17443 | 3.59734 | 193 ft | 32 kts | 62° |
| 2026-04-25 18:46 | 52.17511 | 3.59752 | 120 ft | 10 kts | 324° |
| 2026-04-25 18:47 | 52.17532 | 3.59707 | 92 ft | 2 kts | 314° |
| 2026-04-25 18:47 | 52.17537 | 3.59704 | 71 ft | 1 kts | 308° |
| 2026-04-25 18:47 | 52.17540 | 3.59702 | 62 ft | 0 kts | 304° |
| 2026-04-25 18:50 | 52.17535 | 3.59707 | 95 ft | 2 kts | 313° |
| 2026-04-25 18:50 | 52.17578 | 3.59836 | 181 ft | 27 kts | 47° |
| 2026-04-25 18:50 | 52.17747 | 3.59921 | 334 ft | 40 kts | 313° |
| 2026-04-25 18:51 | 52.17898 | 3.59478 | 535 ft | 47 kts | 331° |
| 2026-04-25 18:51 | 52.17995 | 3.59384 | 586 ft | 53 kts | 333° |
| 2026-04-25 18:51 | 52.18580 | 3.58651 | 933 ft | 73 kts | 314° |
| 2026-04-25 18:51 | 52.18902 | 3.57945 | 1049 ft | 86 kts | 310° |
| 2026-04-25 18:52 | 52.19329 | 3.57136 | 1024 ft | 100 kts | 319° |
| 2026-04-25 18:52 | 52.19857 | 3.56341 | 1019 ft | 106 kts | 321° |
| 2026-04-25 18:52 | 52.20431 | 3.55567 | 1018 ft | 108 kts | 323° |
| 2026-04-25 18:52 | 52.21023 | 3.54800 | 1018 ft | 109 kts | 324° |
| 2026-04-25 18:53 | 52.21622 | 3.54031 | 1019 ft | 110 kts | 323° |
| 2026-04-25 18:53 | 52.22229 | 3.53258 | 1020 ft | 111 kts | 322° |
| 2026-04-25 18:53 | 52.22790 | 3.52386 | 1019 ft | 112 kts | 317° |
| 2026-04-25 18:53 | 52.23343 | 3.51487 | 1018 ft | 112 kts | 318° |
| 2026-04-25 18:54 | 52.24487 | 3.49765 | 1018 ft | 112 kts | 320° |
| 2026-04-25 18:54 | 52.25060 | 3.48906 | 1018 ft | 112 kts | 322° |
| 2026-04-25 18:54 | 52.25651 | 3.48088 | 1013 ft | 112 kts | 323° |
| 2026-04-25 18:55 | 52.26264 | 3.47265 | 932 ft | 116 kts | 323° |
| 2026-04-25 18:55 | 52.26904 | 3.46417 | 845 ft | 121 kts | 323° |
| 2026-04-25 18:55 | 52.27571 | 3.45534 | 729 ft | 125 kts | 323° |
| 2026-04-25 18:55 | 52.28257 | 3.44615 | 556 ft | 130 kts | 322° |
| 2026-04-25 18:56 | 52.28935 | 3.43697 | 524 ft | 122 kts | 321° |
| 2026-04-25 18:56 | 52.29578 | 3.42817 | 523 ft | 121 kts | 320° |
| 2026-04-25 18:56 | 52.30221 | 3.41924 | 518 ft | 121 kts | 321° |
| 2026-04-25 18:56 | 52.30650 | 3.41333 | 518 ft | 122 kts | 321° |
| 2026-04-25 18:57 | 52.31301 | 3.40443 | 518 ft | 123 kts | 321° |
| 2026-04-25 18:57 | 52.31964 | 3.39543 | 519 ft | 124 kts | 321° |
| 2026-04-25 18:57 | 52.32630 | 3.38643 | 517 ft | 125 kts | 321° |
| 2026-04-25 18:57 | 52.33077 | 3.38044 | 509 ft | 124 kts | 322° |
| 2026-04-25 18:58 | 52.33950 | 3.36898 | 518 ft | 118 kts | 323° |
| 2026-04-25 18:58 | 52.35087 | 3.35446 | 514 ft | 78 kts | 327° |
| 2026-04-25 18:58 | 52.35404 | 3.34867 | 514 ft | 63 kts | 299° |
| 2026-04-25 18:59 | 52.35569 | 3.33764 | 453 ft | 45 kts | 350° |
| 2026-04-25 18:59 | 52.35984 | 3.34173 | 258 ft | 4 kts | 33° |
| 2026-04-25 19:00 | 52.35999 | 3.34191 | 237 ft | 0 kts | 47° |
| 2026-04-25 19:05 | 52.35996 | 3.34183 | 341 ft | 4 kts | 340° |
| 2026-04-25 19:05 | 52.36162 | 3.34017 | 584 ft | 51 kts | 333° |
| 2026-04-25 19:06 | 52.36494 | 3.33657 | 918 ft | 65 kts | 336° |
| 2026-04-25 19:06 | 52.36440 | 3.35005 | 1434 ft | 98 kts | 132° |
| 2026-04-25 19:06 | 52.35940 | 3.35851 | 1588 ft | 110 kts | 127° |
| 2026-04-25 19:07 | 52.34784 | 3.38041 | 1522 ft | 136 kts | 126° |
| 2026-04-25 19:07 | 52.34157 | 3.39228 | 1516 ft | 140 kts | 127° |
| 2026-04-25 19:08 | 52.32853 | 3.41655 | 1512 ft | 143 kts | 127° |
| 2026-04-25 19:08 | 52.32191 | 3.42873 | 1511 ft | 143 kts | 127° |
| 2026-04-25 19:09 | 52.30204 | 3.46491 | 1509 ft | 142 kts | 127° |
| 2026-04-25 19:09 | 52.29765 | 3.47282 | 1504 ft | 142 kts | 128° |
| 2026-04-25 19:09 | 52.28208 | 3.50053 | 1505 ft | 141 kts | 128° |
| 2026-04-25 19:10 | 52.27542 | 3.51228 | 1513 ft | 141 kts | 128° |
| 2026-04-25 19:10 | 52.26876 | 3.52399 | 1514 ft | 140 kts | 128° |
| 2026-04-25 19:10 | 52.26211 | 3.53564 | 1515 ft | 140 kts | 128° |
| 2026-04-25 19:10 | 52.25556 | 3.54713 | 1515 ft | 140 kts | 128° |
| 2026-04-25 19:11 | 52.24914 | 3.55903 | 1514 ft | 139 kts | 125° |
| 2026-04-25 19:11 | 52.24297 | 3.57128 | 1515 ft | 140 kts | 124° |
| 2026-04-25 19:11 | 52.23673 | 3.58348 | 1515 ft | 141 kts | 126° |
| 2026-04-25 19:11 | 52.23031 | 3.59560 | 1515 ft | 141 kts | 127° |
| 2026-04-25 19:12 | 52.22377 | 3.60758 | 1513 ft | 142 kts | 128° |
| 2026-04-25 19:12 | 52.21717 | 3.61953 | 1516 ft | 142 kts | 128° |
| 2026-04-25 19:12 | 52.21053 | 3.63152 | 1516 ft | 142 kts | 128° |
| 2026-04-25 19:12 | 52.20392 | 3.64352 | 1508 ft | 142 kts | 128° |
| 2026-04-25 19:13 | 52.19733 | 3.65553 | 1515 ft | 142 kts | 128° |
| 2026-04-25 19:13 | 52.19077 | 3.66754 | 1515 ft | 142 kts | 128° |
| 2026-04-25 19:13 | 52.18420 | 3.67959 | 1515 ft | 142 kts | 128° |
| 2026-04-25 19:13 | 52.17765 | 3.69162 | 1516 ft | 142 kts | 128° |
| 2026-04-25 19:14 | 52.17107 | 3.70368 | 1512 ft | 142 kts | 127° |
| 2026-04-25 19:14 | 52.16674 | 3.71162 | 1509 ft | 142 kts | 127° |
| 2026-04-25 19:14 | 52.15799 | 3.72771 | 1513 ft | 141 kts | 127° |
| 2026-04-25 19:14 | 52.15147 | 3.73970 | 1505 ft | 142 kts | 127° |
| 2026-04-25 19:15 | 52.14493 | 3.75172 | 1514 ft | 142 kts | 128° |
| 2026-04-25 19:15 | 52.13835 | 3.76380 | 1514 ft | 143 kts | 128° |
| 2026-04-25 19:15 | 52.13177 | 3.77587 | 1513 ft | 143 kts | 128° |
| 2026-04-25 19:15 | 52.12518 | 3.78799 | 1511 ft | 143 kts | 128° |
| 2026-04-25 19:16 | 52.11860 | 3.80005 | 1511 ft | 142 kts | 128° |
| 2026-04-25 19:16 | 52.11202 | 3.81209 | 1507 ft | 142 kts | 128° |
| 2026-04-25 19:16 | 52.10545 | 3.82414 | 1506 ft | 142 kts | 128° |
| 2026-04-25 19:16 | 52.09887 | 3.83618 | 1511 ft | 142 kts | 128° |
| 2026-04-25 19:17 | 52.09229 | 3.84823 | 1511 ft | 143 kts | 128° |
| 2026-04-25 19:17 | 52.08570 | 3.86030 | 1509 ft | 143 kts | 127° |
| 2026-04-25 19:17 | 52.07911 | 3.87234 | 1511 ft | 142 kts | 127° |
| 2026-04-25 19:17 | 52.07254 | 3.88435 | 1506 ft | 142 kts | 127° |
| 2026-04-25 19:18 | 52.06598 | 3.89635 | 1510 ft | 142 kts | 127° |
| 2026-04-25 19:18 | 52.05943 | 3.90833 | 1511 ft | 142 kts | 127° |
| 2026-04-25 19:18 | 52.05290 | 3.92001 | 1485 ft | 130 kts | 130° |
| 2026-04-25 19:18 | 52.04674 | 3.93062 | 1312 ft | 131 kts | 130° |
| 2026-04-25 19:19 | 52.04081 | 3.94106 | 1236 ft | 124 kts | 129° |
| 2026-04-25 19:19 | 52.03493 | 3.95180 | 1063 ft | 129 kts | 128° |
| 2026-04-25 19:19 | 52.02900 | 3.96282 | 899 ft | 130 kts | 128° |
| 2026-04-25 19:19 | 52.02504 | 3.97018 | 863 ft | 124 kts | 128° |
| 2026-04-25 19:20 | 52.01799 | 3.98320 | 948 ft | 110 kts | 128° |
| 2026-04-25 19:20 | 52.01298 | 3.99240 | 954 ft | 107 kts | 128° |
| 2026-04-25 19:20 | 52.00813 | 4.00131 | 983 ft | 105 kts | 127° |
| 2026-04-25 19:20 | 52.00321 | 4.01045 | 941 ft | 111 kts | 127° |
| 2026-04-25 19:21 | 51.99809 | 4.02002 | 894 ft | 111 kts | 124° |
| 2026-04-25 19:21 | 51.99008 | 4.04188 | 780 ft | 119 kts | 114° |
| 2026-04-25 19:21 | 51.98612 | 4.05398 | 726 ft | 123 kts | 115° |
| 2026-04-25 19:22 | 51.98203 | 4.06627 | 634 ft | 119 kts | 116° |
| 2026-04-25 19:22 | 51.97779 | 4.07736 | 515 ft | 113 kts | 127° |
| 2026-04-25 19:22 | 51.96623 | 4.08726 | 287 ft | 76 kts | 180° |
| 2026-04-25 19:23 | 51.96189 | 4.08806 | 188 ft | 50 kts | 159° |
| 2026-04-25 19:23 | 51.95944 | 4.08985 | 26 ft | 1 kts | 130° |
| 2026-04-25 19:23 | 51.95938 | 4.08995 | 16 ft | 1 kts | 122° |
| 2026-04-25 19:24 | 51.95938 | 4.08996 | 13 ft | 0 kts | 125° |